Time;durP1;ratioP1;P1;durP2;ratioP2;P2;SDS_P1;SDS_P2;PMS_P1;PMS_P2;Temp;Humidity;BMP_temperature;BMP_pressure;BME280_temperature;BME280_humidity;BME280_pressure;Samples;Min_cycle;Max_cycle;Signal;HPM_P1;HPM_P2
2021/06/27 00:02:01;;;;;;;14.32;5.35;;;;;;;;;;8246070;28;20048;-72
2021/06/27 00:06:07;;;;;;;7.03;4.57;;;;;;;;;;8249689;28;20373;-73
2021/06/27 00:10:18;;;;;;;10.68;4.43;;;;;;;;;;8292847;28;20443;-73
2021/06/27 00:14:24;;;;;;;9.63;5.20;;;;;;;;;;8276208;28;20390;-74
2021/06/27 00:18:30;;;;;;;5.85;4.28;;;;;;;;;;8274291;28;20394;-72
2021/06/27 00:22:35;;;;;;;5.45;4.55;;;;;;;;;;8293327;28;20439;-73
2021/06/27 00:26:41;;;;;;;4.85;4.30;;;;;;;;;;8291359;28;20480;-73
2021/06/27 00:30:46;;;;;;;7.00;4.30;;;;;;;;;;8291650;28;20130;-73
2021/06/27 00:34:52;;;;;;;9.23;5.43;;;;;;;;;;8291552;28;20070;-73
2021/06/27 00:38:57;;;;;;;7.97;5.22;;;;;;;;;;8292177;28;20456;-72
2021/06/27 00:43:03;;;;;;;11.82;6.03;;;;;;;;;;8273821;28;20468;-72
2021/06/27 00:47:08;;;;;;;11.18;6.20;;;;;;;;;;8292188;28;20375;-73
2021/06/27 00:51:14;;;;;;;18.15;7.13;;;;;;;;;;8272911;28;20479;-73
2021/06/27 00:55:20;;;;;;;55.90;8.15;;;;;;;;;;8291319;28;20517;-73
2021/06/27 00:59:27;;;;;;;35.75;6.75;;;;;;;;;;8289858;28;20056;-73
2021/06/27 01:03:33;;;;;;;24.50;5.72;;;;;;;;;;8275817;28;20367;-74
2021/06/27 01:07:39;;;;;;;18.92;6.30;;;;;;;;;;8290212;28;20075;-73
2021/06/27 01:11:45;;;;;;;5.38;3.67;;;;;;;;;;8290935;28;20113;-73
2021/06/27 01:15:52;;;;;;;11.98;3.67;;;;;;;;;;8288847;28;20066;-73
2021/06/27 01:19:59;;;;;;;13.95;3.80;;;;;;;;;;8288015;28;20357;-72
2021/06/27 01:24:05;;;;;;;11.18;4.22;;;;;;;;;;8289501;28;20506;-73
2021/06/27 01:28:13;;;;;;;6.60;5.07;;;;;;;;;;8288348;28;20375;-73
2021/06/27 01:32:18;;;;;;;15.35;6.90;;;;;;;;;;8289086;28;20432;-73
2021/06/27 01:36:24;;;;;;;9.68;5.57;;;;;;;;;;8289223;28;20491;-73
2021/06/27 01:40:31;;;;;;;9.45;5.65;;;;;;;;;;8290392;28;20460;-72
2021/06/27 01:44:37;;;;;;;;;;;;;;;;;;8291605;28;20383;-73
2021/06/27 01:48:42;;;;;;;6.30;4.32;;;;;;;;;;8290606;28;20213;-72
2021/06/27 01:52:48;;;;;;;6.97;5.05;;;;;;;;;;8289719;28;20349;-74
2021/06/27 01:56:55;;;;;;;8.85;5.10;;;;;;;;;;8290212;28;20369;-74
2021/06/27 02:01:01;;;;;;;8.55;5.28;;;;;;;;;;8289734;28;20052;-72
2021/06/27 02:05:08;;;;;;;5.72;4.35;;;;;;;;;;8289925;28;20075;-73
2021/06/27 02:09:15;;;;;;;6.28;4.30;;;;;;;;;;8273905;28;20351;-73
2021/06/27 02:13:20;;;;;;;6.80;5.15;;;;;;;;;;8297350;28;20455;-73
2021/06/27 02:17:25;;;;;;;6.68;4.70;;;;;;;;;;8278414;28;20060;-73
2021/06/27 02:21:35;;;;;;;7.18;4.13;;;;;;;;;;8295941;28;20484;-74
2021/06/27 02:25:40;;;;;;;13.23;5.20;;;;;;;;;;8296061;28;20383;-73
2021/06/27 02:29:46;;;;;;;12.88;5.13;;;;;;;;;;8295125;28;20367;-72
2021/06/27 02:33:51;;;;;;;7.97;5.60;;;;;;;;;;8296813;28;20474;-73
2021/06/27 02:37:57;;;;;;;7.35;4.72;;;;;;;;;;8277333;28;20468;-73
2021/06/27 02:42:02;;;;;;;5.93;4.60;;;;;;;;;;8295143;28;20476;-72
2021/06/27 02:46:08;;;;;;;6.95;5.22;;;;;;;;;;8294572;28;20337;-72
2021/06/27 02:50:16;;;;;;;10.63;5.43;;;;;;;;;;8277340;28;20506;-72
2021/06/27 02:54:22;;;;;;;11.37;4.93;;;;;;;;;;8260654;28;20048;-72
2021/06/27 02:58:30;;;;;;;5.25;3.92;;;;;;;;;;8293851;28;20375;-74
2021/06/27 03:02:36;;;;;;;8.73;4.88;;;;;;;;;;8293961;28;20060;-73
2021/06/27 03:06:41;;;;;;;8.20;4.22;;;;;;;;;;8277041;28;20382;-73
2021/06/27 03:10:46;;;;;;;21.92;5.63;;;;;;;;;;8293901;28;20490;-73
2021/06/27 03:14:51;;;;;;;6.55;4.63;;;;;;;;;;8294292;28;20456;-73
2021/06/27 03:18:57;;;;;;;7.85;4.90;;;;;;;;;;8295465;28;20633;-73
2021/06/27 03:23:02;;;;;;;7.07;4.25;;;;;;;;;;8293936;28;20056;-73
2021/06/27 03:27:08;;;;;;;6.45;4.53;;;;;;;;;;8275945;28;20646;-72
2021/06/27 03:31:13;;;;;;;11.80;5.75;;;;;;;;;;8277572;28;20455;-73
2021/06/27 03:35:19;;;;;;;10.90;6.00;;;;;;;;;;8277515;28;20360;-73
2021/06/27 03:39:24;;;;;;;9.98;5.05;;;;;;;;;;8292435;28;20056;-73
2021/06/27 03:43:30;;;;;;;10.55;5.07;;;;;;;;;;8292987;28;20376;-72
2021/06/27 03:47:35;;;;;;;8.52;4.68;;;;;;;;;;8292813;28;20369;-73
2021/06/27 03:51:41;;;;;;;6.82;5.05;;;;;;;;;;8275486;28;20056;-73
2021/06/27 03:55:46;;;;;;;8.30;4.97;;;;;;;;;;8275371;28;20494;-74
2021/06/27 03:59:52;;;;;;;17.48;5.13;;;;;;;;;;8275021;28;20379;-72
2021/06/27 04:03:57;;;;;;;6.93;4.70;;;;;;;;;;8292205;28;20590;-74
2021/06/27 04:08:03;;;;;;;10.73;5.75;;;;;;;;;;8274688;28;20044;-72
2021/06/27 04:12:09;;;;;;;13.15;5.50;;;;;;;;;;8274874;28;20441;-73
2021/06/27 04:16:14;;;;;;;11.07;6.07;;;;;;;;;;8274910;28;20359;-72
2021/06/27 04:20:20;;;;;;;7.80;5.05;;;;;;;;;;8274189;28;20379;-72
2021/06/27 04:24:25;;;;;;;7.45;4.95;;;;;;;;;;8293068;28;20464;-72
2021/06/27 04:28:31;;;;;;;9.10;4.28;;;;;;;;;;8291333;28;20048;-72
2021/06/27 04:32:36;;;;;;;4.93;4.18;;;;;;;;;;8290844;28;20056;-72
2021/06/27 04:36:41;;;;;;;5.65;4.68;;;;;;;;;;8290618;28;20052;-71
2021/06/27 04:40:47;;;;;;;6.10;4.57;;;;;;;;;;8288999;28;20482;-73
2021/06/27 04:44:51;;;;;;;7.93;4.65;;;;;;;;;;8291070;28;20557;-72
2021/06/27 04:48:57;;;;;;;6.55;4.82;;;;;;;;;;8273362;28;20078;-72
2021/06/27 04:53:02;;;;;;;5.57;4.55;;;;;;;;;;8274789;28;20463;-72
2021/06/27 04:57:08;;;;;;;6.88;4.68;;;;;;;;;;8273918;28;20351;-72
2021/06/27 05:01:14;;;;;;;9.95;5.32;;;;;;;;;;8273984;28;20455;-72
2021/06/27 05:05:19;;;;;;;7.25;5.93;;;;;;;;;;8290728;28;20482;-72
2021/06/27 05:09:24;;;;;;;9.32;6.03;;;;;;;;;;8291070;28;20056;-72
2021/06/27 05:13:30;;;;;;;9.20;6.05;;;;;;;;;;8292348;28;20365;-72
2021/06/27 05:17:34;;;;;;;7.10;6.00;;;;;;;;;;8290318;28;20472;-72
2021/06/27 05:21:39;;;;;;;7.22;5.07;;;;;;;;;;8291118;28;20358;-73
2021/06/27 05:25:45;;;;;;;8.13;5.82;;;;;;;;;;8289529;28;20483;-72
2021/06/27 05:29:50;;;;;;;14.18;6.10;;;;;;;;;;8289843;28;20365;-72
2021/06/27 05:33:55;;;;;;;6.78;5.38;;;;;;;;;;8289053;28;20052;-71
2021/06/27 05:38:00;;;;;;;10.20;5.80;;;;;;;;;;8290655;28;20472;-71
2021/06/27 05:42:05;;;;;;;7.72;5.55;;;;;;;;;;8290772;28;20387;-72
2021/06/27 05:46:11;;;;;;;13.43;6.53;;;;;;;;;;8294292;28;20044;-72
2021/06/27 05:50:16;;;;;;;10.23;7.68;;;;;;;;;;8296213;28;20476;-72
2021/06/27 05:54:21;;;;;;;16.77;8.77;;;;;;;;;;8297862;28;20467;-71
2021/06/27 05:58:28;;;;;;;12.00;7.82;;;;;;;;;;8296768;28;20383;-71
2021/06/27 06:02:33;;;;;;;11.23;7.38;;;;;;;;;;8296232;28;20380;-70
2021/06/27 06:06:38;;;;;;;15.48;8.80;;;;;;;;;;8278685;28;20400;-70
2021/06/27 06:10:44;;;;;;;13.75;8.00;;;;;;;;;;8295797;28;20497;-71
2021/06/27 06:14:49;;;;;;;18.73;8.35;;;;;;;;;;8278312;28;20490;-69
2021/06/27 06:18:55;;;;;;;12.60;8.07;;;;;;;;;;8279199;28;20380;-70
2021/06/27 06:23:00;;;;;;;13.05;9.18;;;;;;;;;;8295756;28;20479;-71
2021/06/27 06:27:06;;;;;;;18.58;7.30;;;;;;;;;;8295194;28;20099;-70
2021/06/27 06:31:12;;;;;;;10.52;7.68;;;;;;;;;;8295512;28;20341;-71
2021/06/27 06:35:17;;;;;;;12.30;6.95;;;;;;;;;;8293923;28;20353;-70
2021/06/27 06:39:22;;;;;;;9.68;6.38;;;;;;;;;;8295372;28;20344;-70
2021/06/27 06:43:29;;;;;;;8.93;5.40;;;;;;;;;;8276117;28;20474;-70
2021/06/27 06:47:33;;;;;;;9.93;6.25;;;;;;;;;;8276039;28;20501;-71
2021/06/27 06:51:39;;;;;;;9.10;5.45;;;;;;;;;;8294466;28;20474;-71
2021/06/27 06:55:44;;;;;;;9.98;5.93;;;;;;;;;;8293897;28;20387;-70
2021/06/27 06:59:49;;;;;;;13.15;5.18;;;;;;;;;;8277208;28;20485;-70
2021/06/27 07:03:53;;;;;;;11.40;5.22;;;;;;;;;;8294196;28;20460;-70
2021/06/27 07:07:58;;;;;;;6.85;5.43;;;;;;;;;;8294066;28;20521;-70
2021/06/27 07:12:06;;;;;;;6.60;5.10;;;;;;;;;;8276575;28;20472;-70
2021/06/27 07:16:12;;;;;;;9.30;5.15;;;;;;;;;;8293834;28;20351;-72
2021/06/27 07:20:17;;;;;;;7.50;4.63;;;;;;;;;;8259846;28;20468;-70
2021/06/27 07:24:22;;;;;;;9.00;4.70;;;;;;;;;;8275730;28;20487;-71
2021/06/27 07:28:28;;;;;;;8.52;5.07;;;;;;;;;;8293339;28;20356;-71
2021/06/27 07:32:33;;;;;;;7.60;4.10;;;;;;;;;;8292397;28;20367;-71
2021/06/27 07:36:38;;;;;;;5.90;4.18;;;;;;;;;;8275391;28;20110;-71
2021/06/27 07:40:44;;;;;;;6.55;4.35;;;;;;;;;;8293613;28;20349;-71
2021/06/27 07:44:49;;;;;;;7.25;4.60;;;;;;;;;;8275935;28;20459;-71
2021/06/27 07:48:55;;;;;;;7.20;4.28;;;;;;;;;;8293615;28;20486;-72
2021/06/27 07:53:00;;;;;;;4.18;3.13;;;;;;;;;;8291869;28;20367;-73
2021/06/27 07:57:07;;;;;;;6.15;2.90;;;;;;;;;;8292158;28;20070;-73
2021/06/27 08:01:13;;;;;;;8.70;3.38;;;;;;;;;;8291112;28;20441;-72
2021/06/27 08:05:18;;;;;;;6.03;3.60;;;;;;;;;;8289189;28;20368;-70
2021/06/27 08:09:23;;;;;;;4.82;3.40;;;;;;;;;;8293651;28;20431;-71
2021/06/27 08:13:29;;;;;;;4.38;3.08;;;;;;;;;;8291727;28;20406;-71
2021/06/27 08:17:34;;;;;;;4.25;2.85;;;;;;;;;;8307642;28;20350;-71
2021/06/27 08:21:42;;;;;;;5.70;3.67;;;;;;;;;;8291699;28;20368;-71
2021/06/27 08:25:47;;;;;;;6.72;3.20;;;;;;;;;;8290006;28;20383;-70
2021/06/27 08:29:53;;;;;;;6.03;3.08;;;;;;;;;;8282494;28;20494;-71
2021/06/27 08:33:59;;;;;;;4.05;3.15;;;;;;;;;;8294231;28;20861;-71
2021/06/27 08:38:04;;;;;;;4.37;2.87;;;;;;;;;;8290276;28;20352;-71
2021/06/27 08:42:09;;;;;;;4.25;2.88;;;;;;;;;;8290757;28;20483;-72
2021/06/27 08:46:15;;;;;;;7.75;3.30;;;;;;;;;;8290549;28;20482;-71
2021/06/27 08:50:22;;;;;;;7.75;3.28;;;;;;;;;;8288934;28;20456;-72
2021/06/27 08:54:28;;;;;;;;;;;;;;;;;;8289504;28;20048;-71
2021/06/27 08:58:42;;;;;;;4.25;3.05;;;;;;;;;;8288986;28;19920;-71
2021/06/27 09:02:47;;;;;;;3.60;3.17;;;;;;;;;;8290731;28;20368;-71
2021/06/27 09:06:56;;;;;;;3.38;3.08;;;;;;;;;;8272717;28;20472;-71
2021/06/27 09:11:14;;;;;;;5.22;3.10;;;;;;;;;;8273640;28;20455;-72
2021/06/27 09:15:37;;;;;;;2.95;2.50;;;;;;;;;;8291158;28;20375;-71
2021/06/27 09:19:55;;;;;;;4.85;2.17;;;;;;;;;;8272836;28;20367;-71
2021/06/27 09:24:00;;;;;;;3.97;2.45;;;;;;;;;;8290124;28;20460;-72
2021/06/27 09:28:12;;;;;;;3.70;2.25;;;;;;;;;;8272791;28;20464;-72
2021/06/27 09:32:23;;;;;;;2.63;2.28;;;;;;;;;;8289277;28;20451;-71
2021/06/27 09:36:29;;;;;;;3.53;2.38;;;;;;;;;;8271459;28;20380;-71
2021/06/27 09:40:34;;;;;;;4.37;2.50;;;;;;;;;;8288583;28;20056;-71
2021/06/27 09:44:42;;;;;;;4.55;2.08;;;;;;;;;;8287444;28;20379;-72
2021/06/27 09:48:55;;;;;;;3.60;2.63;;;;;;;;;;8288650;28;20467;-71
2021/06/27 09:53:00;;;;;;;3.88;2.40;;;;;;;;;;8272030;28;20476;-73
2021/06/27 09:57:07;;;;;;;4.65;2.28;;;;;;;;;;8271247;28;20496;-72
2021/06/27 10:02:04;;;;;;;3.30;2.42;;;;;;;;;;8256519;28;20355;-73
2021/06/27 10:06:14;;;;;;;5.65;2.45;;;;;;;;;;8267560;28;20471;-71
2021/06/27 10:10:20;;;;;;;6.85;2.22;;;;;;;;;;8289958;28;20067;-71
2021/06/27 10:14:35;;;;;;;6.38;2.65;;;;;;;;;;8289814;28;20363;-71
2021/06/27 10:18:41;;;;;;;2.83;2.55;;;;;;;;;;8286461;28;20482;-71
2021/06/27 10:22:46;;;;;;;4.15;2.63;;;;;;;;;;8286847;28;20384;-71
2021/06/27 10:26:52;;;;;;;3.88;2.22;;;;;;;;;;8287260;28;20074;-71
2021/06/27 10:30:58;;;;;;;4.25;2.90;;;;;;;;;;8272862;28;20351;-70
2021/06/27 10:35:08;;;;;;;3.75;2.35;;;;;;;;;;8290613;28;20483;-71
2021/06/27 10:39:16;;;;;;;3.33;2.20;;;;;;;;;;8294197;28;20381;-72
2021/06/27 10:43:22;;;;;;;5.45;1.90;;;;;;;;;;8309779;28;20059;-71
2021/06/27 10:47:34;;;;;;;3.38;1.88;;;;;;;;;;8294429;28;20467;-71
2021/06/27 10:52:18;;;;;;;2.38;1.70;;;;;;;;;;8294675;28;20502;-72
2021/06/27 10:57:18;;;;;;;3.13;1.85;;;;;;;;;;8160376;28;20389;-71
2021/06/27 11:01:23;;;;;;;4.95;2.00;;;;;;;;;;8256521;28;20405;-72
2021/06/27 11:05:32;;;;;;;2.85;1.70;;;;;;;;;;8294469;28;20079;-72
2021/06/27 11:09:39;;;;;;;2.35;1.67;;;;;;;;;;8292381;28;20494;-71
2021/06/27 11:14:07;;;;;;;3.95;1.60;;;;;;;;;;8293273;28;20474;-72
2021/06/27 11:18:28;;;;;;;2.22;1.60;;;;;;;;;;8276841;28;20367;-71
2021/06/27 11:22:50;;;;;;;4.75;1.58;;;;;;;;;;8294554;28;20352;-71
2021/06/27 11:26:56;;;;;;;1.75;1.40;;;;;;;;;;8292586;28;20048;-71
2021/06/27 11:31:25;;;;;;;2.47;1.50;;;;;;;;;;8257861;28;20471;-71
2021/06/27 11:35:48;;;;;;;2.30;1.60;;;;;;;;;;8292801;28;20386;-70
2021/06/27 11:40:00;;;;;;;1.50;1.40;;;;;;;;;;8292196;28;20593;-71
2021/06/27 11:44:14;;;;;;;2.38;1.80;;;;;;;;;;8290547;28;20487;-71
2021/06/27 11:48:21;;;;;;;3.43;1.73;;;;;;;;;;8275560;28;20384;-70
2021/06/27 11:52:27;;;;;;;4.57;1.63;;;;;;;;;;8273956;28;20798;-70
2021/06/27 11:57:06;;;;;;;3.13;1.60;;;;;;;;;;8271960;28;20480;-71
2021/06/27 12:01:12;;;;;;;1.90;1.60;;;;;;;;;;8291460;28;20400;-70
2021/06/27 12:05:19;;;;;;;3.45;1.90;;;;;;;;;;8289505;28;20449;-71
2021/06/27 12:09:37;;;;;;;;;;;;;;;;;;8292873;28;20488;-70
2021/06/27 12:13:43;;;;;;;9.43;2.38;;;;;;;;;;8291681;28;19924;-70
2021/06/27 12:17:54;;;;;;;4.82;2.90;;;;;;;;;;8274114;28;20049;-71
2021/06/27 12:22:01;;;;;;;4.28;2.95;;;;;;;;;;8291096;28;20448;-71
2021/06/27 12:26:16;;;;;;;3.07;2.43;;;;;;;;;;8292076;28;20371;-70
2021/06/27 12:30:38;;;;;;;4.85;2.97;;;;;;;;;;8293039;28;20372;-71
2021/06/27 12:34:42;;;;;;;6.68;3.22;;;;;;;;;;8272893;28;20494;-71
2021/06/27 12:38:54;;;;;;;4.95;2.70;;;;;;;;;;8274989;28;20478;-71
2021/06/27 12:43:00;;;;;;;4.60;2.90;;;;;;;;;;8273878;28;20379;-70
2021/06/27 12:47:06;;;;;;;4.90;3.03;;;;;;;;;;8290011;28;20470;-72
2021/06/27 12:51:40;;;;;;;4.20;2.53;;;;;;;;;;8273743;28;20056;-72
2021/06/27 12:56:07;;;;;;;4.20;2.75;;;;;;;;;;8289955;28;20360;-72
2021/06/27 13:00:17;;;;;;;5.65;3.63;;;;;;;;;;8290499;28;20363;-71
2021/06/27 13:04:29;;;;;;;3.70;3.08;;;;;;;;;;8273709;28;20078;-72
2021/06/27 13:08:34;;;;;;;4.47;3.13;;;;;;;;;;8274155;28;20371;-72
2021/06/27 13:12:42;;;;;;;4.70;3.00;;;;;;;;;;8255794;28;20460;-71
2021/06/27 13:17:06;;;;;;;3.25;2.80;;;;;;;;;;8292202;28;21072;-71
2021/06/27 13:21:21;;;;;;;4.45;3.15;;;;;;;;;;8291680;28;20052;-72
2021/06/27 13:25:32;;;;;;;6.32;2.92;;;;;;;;;;8289276;28;20414;-71
2021/06/27 13:29:38;;;;;;;7.45;3.15;;;;;;;;;;8288549;28;20440;-71
2021/06/27 13:33:54;;;;;;;5.60;2.90;;;;;;;;;;8289258;28;20486;-71
2021/06/27 13:38:02;;;;;;;7.20;3.10;;;;;;;;;;8289997;28;20444;-72
2021/06/27 13:42:07;;;;;;;4.53;2.97;;;;;;;;;;8271887;28;20382;-71
2021/06/27 13:46:13;;;;;;;3.30;2.80;;;;;;;;;;8270951;28;20472;-71
2021/06/27 13:50:19;;;;;;;3.08;2.70;;;;;;;;;;8292542;28;20364;-71
2021/06/27 13:54:24;;;;;;;7.88;3.08;;;;;;;;;;8273112;28;20071;-71
2021/06/27 13:58:29;;;;;;;3.20;2.78;;;;;;;;;;8293105;28;20364;-71
2021/06/27 14:02:35;;;;;;;4.43;3.17;;;;;;;;;;8289371;28;20427;-71
2021/06/27 14:06:40;;;;;;;5.93;2.80;;;;;;;;;;8292814;28;20414;-71
2021/06/27 14:10:45;;;;;;;4.88;3.08;;;;;;;;;;8296303;28;20567;-72
2021/06/27 14:14:51;;;;;;;5.32;2.83;;;;;;;;;;8277498;28;20505;-71
2021/06/27 14:18:56;;;;;;;4.13;2.90;;;;;;;;;;8276133;28;20474;-71
2021/06/27 14:23:01;;;;;;;10.10;3.17;;;;;;;;;;8295141;28;20480;-71
2021/06/27 14:27:07;;;;;;;3.67;3.10;;;;;;;;;;8294609;28;20079;-71
2021/06/27 14:31:12;;;;;;;4.00;3.40;;;;;;;;;;8294565;28;20396;-72
2021/06/27 14:35:17;;;;;;;6.32;3.33;;;;;;;;;;8296531;28;20044;-72
2021/06/27 14:39:25;;;;;;;4.95;3.45;;;;;;;;;;8276727;28;20459;-70
2021/06/27 14:43:32;;;;;;;8.95;3.17;;;;;;;;;;8278663;28;20504;-70
2021/06/27 14:47:38;;;;;;;7.80;3.78;;;;;;;;;;8276998;28;20498;-71
2021/06/27 14:51:44;;;;;;;5.65;3.33;;;;;;;;;;8261568;28;20060;-70
2021/06/27 14:55:49;;;;;;;4.72;3.83;;;;;;;;;;8293984;28;20080;-71
2021/06/27 14:59:55;;;;;;;4.75;2.97;;;;;;;;;;8293720;28;20402;-72
2021/06/27 15:04:01;;;;;;;6.05;3.60;;;;;;;;;;8276037;28;20495;-70
2021/06/27 15:08:06;;;;;;;6.45;3.42;;;;;;;;;;8278491;28;20473;-70
2021/06/27 15:12:12;;;;;;;5.80;3.70;;;;;;;;;;8294107;28;20483;-71
2021/06/27 15:16:22;;;;;;;4.93;3.50;;;;;;;;;;8292224;28;20394;-70
2021/06/27 15:20:28;;;;;;;5.60;3.45;;;;;;;;;;8273943;28;20052;-71
2021/06/27 15:24:33;;;;;;;4.57;3.38;;;;;;;;;;8293948;28;20379;-73
2021/06/27 15:28:39;;;;;;;3.50;2.97;;;;;;;;;;8293140;28;20506;-73
2021/06/27 15:32:44;;;;;;;5.10;3.92;;;;;;;;;;8293363;28;20436;-71
2021/06/27 15:36:50;;;;;;;8.30;3.28;;;;;;;;;;8291837;28;20066;-71
2021/06/27 15:40:55;;;;;;;6.57;3.75;;;;;;;;;;8293009;28;20488;-71
2021/06/27 15:45:01;;;;;;;7.45;4.28;;;;;;;;;;8293610;28;20363;-71
2021/06/27 15:49:07;;;;;;;7.00;2.80;;;;;;;;;;8292195;28;20053;-71
2021/06/27 15:53:14;;;;;;;4.63;3.13;;;;;;;;;;8294942;28;20074;-72
2021/06/27 15:57:20;;;;;;;4.28;3.08;;;;;;;;;;8276411;28;20341;-71
2021/06/27 16:01:25;;;;;;;3.60;2.90;;;;;;;;;;8293390;28;20349;-71
2021/06/27 16:05:31;;;;;;;4.75;3.70;;;;;;;;;;8292530;28;20048;-70
2021/06/27 16:09:48;;;;;;;4.85;3.50;;;;;;;;;;8291603;28;20056;-71
2021/06/27 16:13:53;;;;;;;3.30;2.80;;;;;;;;;;8273879;28;20479;-70
2021/06/27 16:17:59;;;;;;;3.83;3.10;;;;;;;;;;8291672;28;20383;-71
2021/06/27 16:22:04;;;;;;;3.85;2.67;;;;;;;;;;8273792;28;20375;-70
2021/06/27 16:26:09;;;;;;;5.13;2.95;;;;;;;;;;8293562;28;20360;-70
2021/06/27 16:30:15;;;;;;;4.38;3.15;;;;;;;;;;8290796;28;20468;-70
2021/06/27 16:34:20;;;;;;;3.38;2.97;;;;;;;;;;8290807;28;20486;-70
2021/06/27 16:38:26;;;;;;;3.10;2.55;;;;;;;;;;8293025;28;20463;-70
2021/06/27 16:42:31;;;;;;;5.30;2.55;;;;;;;;;;8290955;28;20098;-70
2021/06/27 16:46:37;;;;;;;6.45;3.20;;;;;;;;;;8291057;28;20479;-70
2021/06/27 16:50:42;;;;;;;2.95;2.30;;;;;;;;;;8273945;28;20066;-71
2021/06/27 16:54:48;;;;;;;6.90;3.17;;;;;;;;;;8290195;28;20414;-70
2021/06/27 16:58:53;;;;;;;7.75;5.30;;;;;;;;;;8272636;28;20501;-70
2021/06/27 17:02:59;;;;;;;8.77;4.70;;;;;;;;;;8289152;28;20476;-70
2021/06/27 17:07:04;;;;;;;4.97;2.58;;;;;;;;;;8288414;28;20083;-70
2021/06/27 17:11:11;;;;;;;5.50;2.95;;;;;;;;;;8288717;28;20498;-70
2021/06/27 17:15:19;;;;;;;12.93;4.10;;;;;;;;;;8290379;28;20353;-70
2021/06/27 17:19:24;;;;;;;6.53;3.80;;;;;;;;;;8289059;28;20456;-71
2021/06/27 17:23:34;;;;;;;9.70;3.28;;;;;;;;;;8271760;28;20360;-70
2021/06/27 17:27:39;;;;;;;3.90;2.28;;;;;;;;;;8291548;28;20070;-71
2021/06/27 17:31:44;;;;;;;3.13;2.40;;;;;;;;;;8272663;28;20472;-71
2021/06/27 17:35:49;;;;;;;7.50;3.00;;;;;;;;;;8288746;28;20483;-70
2021/06/27 17:39:55;;;;;;;8.18;3.50;;;;;;;;;;8256423;28;20352;-70
2021/06/27 17:44:00;;;;;;;4.55;3.10;;;;;;;;;;8292020;28;20345;-71
2021/06/27 17:48:05;;;;;;;11.98;3.67;;;;;;;;;;8272455;28;20486;-71
2021/06/27 17:52:11;;;;;;;6.35;3.47;;;;;;;;;;8289380;28;20053;-70
2021/06/27 17:56:22;;;;;;;5.45;3.50;;;;;;;;;;8271748;28;20343;-69
2021/06/27 18:00:28;;;;;;;7.90;3.65;;;;;;;;;;8289677;28;20060;-70
2021/06/27 18:04:33;;;;;;;5.85;3.28;;;;;;;;;;8291428;28;20620;-70
2021/06/27 18:08:38;;;;;;;8.43;3.45;;;;;;;;;;8289346;28;20052;-71
2021/06/27 18:12:44;;;;;;;5.72;3.60;;;;;;;;;;8289656;28;20475;-71
2021/06/27 18:16:50;;;;;;;5.28;3.67;;;;;;;;;;8287391;28;20468;-70
2021/06/27 18:20:56;;;;;;;6.30;4.22;;;;;;;;;;8289316;28;20471;-70
2021/06/27 18:25:01;;;;;;;9.95;4.80;;;;;;;;;;8287542;28;20413;-70
2021/06/27 18:29:06;;;;;;;5.18;4.10;;;;;;;;;;8271562;28;20410;-70
2021/06/27 18:33:12;;;;;;;5.03;4.22;;;;;;;;;;8287056;28;20045;-70
2021/06/27 18:37:17;;;;;;;5.10;4.03;;;;;;;;;;8271132;28;20048;-71
2021/06/27 18:41:23;;;;;;;7.13;5.60;;;;;;;;;;8288617;28;20367;-71
2021/06/27 18:45:28;;;;;;;6.32;3.95;;;;;;;;;;8270313;28;20464;-71
2021/06/27 18:49:33;;;;;;;5.25;4.50;;;;;;;;;;8289273;28;20084;-70
2021/06/27 18:53:39;;;;;;;6.18;4.05;;;;;;;;;;8292310;28;20522;-70
2021/06/27 18:57:42;;;;;;;6.55;4.28;;;;;;;;;;8293778;28;20463;-70
2021/06/27 19:01:46;;;;;;;7.20;4.53;;;;;;;;;;8293955;28;20483;-69
2021/06/27 19:05:52;;;;;;;6.32;4.50;;;;;;;;;;8293184;28;20460;-70
2021/06/27 19:09:58;;;;;;;5.57;4.40;;;;;;;;;;8258667;28;20056;-71
2021/06/27 19:14:05;;;;;;;7.20;4.60;;;;;;;;;;8292065;28;20056;-70
2021/06/27 19:18:12;;;;;;;16.20;8.57;;;;;;;;;;8260481;28;20474;-70
2021/06/27 19:22:21;;;;;;;6.78;4.68;;;;;;;;;;8294461;28;20355;-72
2021/06/27 19:26:29;;;;;;;7.50;4.75;;;;;;;;;;8277566;28;20470;-72
2021/06/27 19:30:34;;;;;;;8.70;5.40;;;;;;;;;;8294023;28;20492;-72
2021/06/27 19:34:42;;;;;;;6.38;4.95;;;;;;;;;;8273857;28;20457;-71
2021/06/27 19:38:50;;;;;;;6.63;4.93;;;;;;;;;;8276973;28;20343;-71
2021/06/27 19:42:55;;;;;;;11.02;6.15;;;;;;;;;;8293800;28;20387;-72
2021/06/27 19:47:01;;;;;;;15.02;6.57;;;;;;;;;;8292210;28;20468;-72
2021/06/27 19:51:06;;;;;;;21.83;9.20;;;;;;;;;;8293719;28;20472;-72
2021/06/27 19:55:13;;;;;;;23.38;8.30;;;;;;;;;;8274466;28;20408;-72
2021/06/27 19:59:22;;;;;;;24.33;9.32;;;;;;;;;;8292126;28;20401;-71
2021/06/27 20:03:27;;;;;;;9.25;5.22;;;;;;;;;;8288519;28;20113;-72
2021/06/27 20:07:34;;;;;;;9.07;5.25;;;;;;;;;;8274351;28;20466;-72
2021/06/27 20:11:40;;;;;;;6.88;4.97;;;;;;;;;;8274353;28;20056;-71
2021/06/27 20:15:51;;;;;;;6.55;5.25;;;;;;;;;;8293353;28;20487;-71
2021/06/27 20:19:56;;;;;;;7.63;5.20;;;;;;;;;;8293361;28;20353;-71
2021/06/27 20:24:02;;;;;;;15.65;6.97;;;;;;;;;;8291760;28;20451;-72
2021/06/27 20:28:09;;;;;;;9.23;5.93;;;;;;;;;;8273718;28;20466;-72
2021/06/27 20:32:15;;;;;;;11.75;6.35;;;;;;;;;;8289552;28;20448;-71
2021/06/27 20:36:20;;;;;;;8.38;7.30;;;;;;;;;;8291786;28;20473;-71
2021/06/27 20:40:25;;;;;;;11.88;5.78;;;;;;;;;;8274179;28;20386;-72
2021/06/27 20:44:31;;;;;;;8.63;6.30;;;;;;;;;;8273129;28;20485;-71
2021/06/27 20:48:36;;;;;;;7.32;6.05;;;;;;;;;;8271701;28;20494;-72
2021/06/27 20:52:42;;;;;;;22.65;9.90;;;;;;;;;;8270993;28;20540;-71
2021/06/27 20:56:49;;;;;;;13.65;7.03;;;;;;;;;;8240467;28;20394;-71
2021/06/27 21:00:54;;;;;;;12.20;7.90;;;;;;;;;;8289650;28;20480;-71
2021/06/27 21:04:59;;;;;;;10.90;7.00;;;;;;;;;;8272957;28;20387;-72
2021/06/27 21:09:05;;;;;;;11.73;6.53;;;;;;;;;;8274793;28;20387;-72
2021/06/27 21:13:11;;;;;;;9.95;5.95;;;;;;;;;;8272774;28;20066;-72
2021/06/27 21:17:16;;;;;;;13.27;5.32;;;;;;;;;;8257973;28;20341;-70
2021/06/27 21:21:21;;;;;;;11.18;4.88;;;;;;;;;;8274079;28;20040;-70
2021/06/27 21:25:27;;;;;;;8.43;4.32;;;;;;;;;;8289356;28;20478;-70
2021/06/27 21:29:32;;;;;;;10.00;5.32;;;;;;;;;;8271605;28;20480;-71
2021/06/27 21:33:37;;;;;;;8.68;4.68;;;;;;;;;;8291193;28;20070;-71
2021/06/27 21:37:43;;;;;;;8.25;5.22;;;;;;;;;;8291642;28;20375;-71
2021/06/27 21:41:48;;;;;;;6.78;4.72;;;;;;;;;;8272808;28;20339;-71
2021/06/27 21:45:53;;;;;;;6.63;4.47;;;;;;;;;;8290212;28;20480;-72
2021/06/27 21:49:58;;;;;;;7.15;4.82;;;;;;;;;;8290152;28;20053;-71
2021/06/27 21:54:04;;;;;;;6.65;4.60;;;;;;;;;;8271551;28;20372;-71
2021/06/27 21:58:10;;;;;;;8.43;4.78;;;;;;;;;;8289628;28;20376;-72
2021/06/27 22:02:15;;;;;;;12.57;4.95;;;;;;;;;;8289405;28;20456;-71
2021/06/27 22:06:20;;;;;;;5.88;4.80;;;;;;;;;;8290836;28;20357;-70
2021/06/27 22:10:26;;;;;;;6.70;4.53;;;;;;;;;;8270581;28;20348;-71
2021/06/27 22:14:32;;;;;;;6.00;4.63;;;;;;;;;;8288341;28;20390;-71
2021/06/27 22:18:37;;;;;;;8.95;5.00;;;;;;;;;;8272105;28;20388;-71
2021/06/27 22:22:44;;;;;;;18.45;7.72;;;;;;;;;;8288598;28;20345;-71
2021/06/27 22:26:49;;;;;;;14.07;7.20;;;;;;;;;;8291529;28;20384;-72
2021/06/27 22:30:57;;;;;;;10.50;6.35;;;;;;;;;;8296098;28;20090;-71
2021/06/27 22:35:05;;;;;;;19.00;9.23;;;;;;;;;;8294959;28;20466;-71
2021/06/27 22:39:10;;;;;;;15.82;9.80;;;;;;;;;;8295166;28;20063;-72
2021/06/27 22:43:16;;;;;;;9.00;6.00;;;;;;;;;;8297079;28;20363;-71
2021/06/27 22:47:20;;;;;;;11.57;7.50;;;;;;;;;;8277026;28;20383;-71
2021/06/27 22:51:26;;;;;;;7.68;4.85;;;;;;;;;;8277284;28;20391;-71
2021/06/27 22:55:31;;;;;;;5.68;4.35;;;;;;;;;;8293862;28;20053;-72
2021/06/27 22:59:37;;;;;;;20.48;4.65;;;;;;;;;;8276558;28;20495;-72
2021/06/27 23:03:42;;;;;;;5.80;4.65;;;;;;;;;;8276847;28;20383;-72
2021/06/27 23:07:48;;;;;;;9.23;5.28;;;;;;;;;;8294035;28;20485;-72
2021/06/27 23:11:55;;;;;;;6.93;5.03;;;;;;;;;;8276633;28;20472;-71
2021/06/27 23:15:59;;;;;;;5.97;4.78;;;;;;;;;;8276153;28;20415;-72
2021/06/27 23:20:10;;;;;;;5.25;4.57;;;;;;;;;;8294220;28;20372;-71
2021/06/27 23:24:16;;;;;;;5.40;3.83;;;;;;;;;;8293462;28;20056;-72
2021/06/27 23:28:22;;;;;;;9.88;4.47;;;;;;;;;;8293765;28;20479;-71
2021/06/27 23:32:28;;;;;;;11.80;4.95;;;;;;;;;;8276213;28;20133;-72
2021/06/27 23:36:33;;;;;;;12.20;4.43;;;;;;;;;;8292671;28;20057;-72
2021/06/27 23:40:38;;;;;;;7.72;5.15;;;;;;;;;;8275526;28;20461;-72
2021/06/27 23:44:44;;;;;;;11.23;5.07;;;;;;;;;;8294301;28;20071;-71
2021/06/27 23:48:49;;;;;;;10.75;4.70;;;;;;;;;;8292199;28;20464;-72
2021/06/27 23:52:54;;;;;;;9.13;4.75;;;;;;;;;;8292969;28;20364;-72
2021/06/27 23:57:00;;;;;;;8.85;4.63;;;;;;;;;;8294764;28;20371;-72
